Terminal Aerodrome Forecast
Issued by NWS Green Bay, WI

Home | Current Version | Previous Version | Text Only | Print | Product List | Glossary Off
Versions: 1 2 3 4 5 6 7 8 9 10 11 12 13 14 15 16 17 18 19 20 21 22 23 24 25 26 27 28 29 30 31 32 33

000
FTUS43 KGRB 232300
TAFGRB
TAF
KGRB 232325Z 2400/2424 05007KT P6SM SKC
     FM240300 VRB03KT P6SM SKC
      TEMPO 2408/2411 2SM BR
     FM241300 21004KT P6SM SKC=

USA.gov is the U.S. government's official web portal to all federal, state and local government web resources and services.